createdAt,value
2017-03-16T00:00:53.191Z,19.56
2017-03-16T00:02:03.479Z,19.57
2017-03-16T00:03:13.776Z,19.53
2017-03-16T00:04:24.048Z,19.56
2017-03-16T00:05:34.333Z,19.59
2017-03-16T00:06:44.637Z,19.56
2017-03-16T00:07:54.945Z,19.56
2017-03-16T00:09:05.252Z,19.55
2017-03-16T00:10:15.854Z,19.62
2017-03-16T00:11:25.835Z,19.57
2017-03-16T00:12:35.818Z,19.57
2017-03-16T00:13:46.135Z,19.67
2017-03-16T00:14:56.438Z,19.56
2017-03-16T00:16:06.671Z,19.6
2017-03-16T00:17:16.964Z,19.53
2017-03-16T00:18:27.258Z,19.59
2017-03-16T00:19:37.558Z,19.62
2017-03-16T00:20:46.915Z,19.6
2017-03-16T00:21:57.462Z,19.62
2017-03-16T00:23:07.773Z,19.53
2017-03-16T00:24:18.098Z,19.6
2017-03-16T00:25:28.398Z,19.63
2017-03-16T00:26:38.687Z,19.7
2017-03-16T00:27:48.926Z,19.6
2017-03-16T00:28:59.226Z,19.59
2017-03-16T00:30:09.514Z,19.59
2017-03-16T00:31:19.812Z,19.62
2017-03-16T00:32:30.119Z,19.57
2017-03-16T00:33:40.655Z,19.62
2017-03-16T00:34:50.944Z,19.63
2017-03-16T00:36:01.233Z,19.57
2017-03-16T00:37:11.517Z,19.57
2017-03-16T00:38:21.815Z,19.56
2017-03-16T00:39:32.352Z,19.56
2017-03-16T00:40:42.333Z,19.57
2017-03-16T00:41:52.631Z,19.6
2017-03-16T00:43:02.918Z,19.55
2017-03-16T00:44:13.213Z,19.55
2017-03-16T00:45:23.760Z,19.7
2017-03-16T00:46:34.062Z,19.66
2017-03-16T00:47:44.042Z,19.63
2017-03-16T00:48:54.019Z,19.63
2017-03-16T00:50:04.305Z,19.64
2017-03-16T00:51:14.538Z,19.63
2017-03-16T00:52:24.830Z,19.62
2017-03-16T00:53:35.123Z,19.64
2017-03-16T00:54:45.422Z,19.59
2017-03-16T00:55:55.718Z,19.56
2017-03-16T00:57:06.263Z,19.64
2017-03-16T00:58:16.554Z,19.64
2017-03-16T00:59:26.851Z,19.66
2017-03-16T01:00:37.152Z,19.67
2017-03-16T01:01:47.451Z,19.62
2017-03-16T01:02:57.683Z,19.64
2017-03-16T01:04:07.974Z,19.55
2017-03-16T01:05:18.263Z,19.64
2017-03-16T01:06:28.563Z,19.63
2017-03-16T01:07:38.848Z,19.59
2017-03-16T01:08:49.385Z,19.64
2017-03-16T01:09:59.687Z,19.62
2017-03-16T01:11:09.668Z,19.64
2017-03-16T01:12:19.956Z,19.6
2017-03-16T01:13:30.250Z,19.64
2017-03-16T01:14:40.791Z,19.62
2017-03-16T01:15:51.082Z,19.64
2017-03-16T01:17:01.367Z,19.64
2017-03-16T01:18:11.347Z,19.64
2017-03-16T01:19:21.335Z,19.66
2017-03-16T01:20:31.937Z,19.64
2017-03-16T01:21:42.225Z,19.63
2017-03-16T01:22:52.523Z,19.64
2017-03-16T01:24:02.816Z,19.67
2017-03-16T01:25:12.493Z,19.64
2017-03-16T01:26:23.092Z,19.64
2017-03-16T01:27:33.382Z,19.67
2017-03-16T01:28:43.882Z,19.6
2017-03-16T01:29:53.873Z,19.59
2017-03-16T01:31:03.853Z,19.7
2017-03-16T01:32:14.139Z,19.64
2017-03-16T01:33:24.135Z,19.6
2017-03-16T01:34:34.429Z,19.63
2017-03-16T01:35:44.721Z,19.63
2017-03-16T01:36:54.696Z,19.57
2017-03-16T01:38:05.240Z,19.63
2017-03-16T01:39:15.542Z,19.64
2017-03-16T01:40:25.536Z,19.57
2017-03-16T01:41:35.830Z,19.62
2017-03-16T01:42:46.128Z,19.55
2017-03-16T01:43:56.723Z,19.57
2017-03-16T01:45:07.005Z,19.62
2017-03-16T01:46:16.983Z,19.59
2017-03-16T01:47:27.264Z,19.59
2017-03-16T01:48:37.556Z,19.55
2017-03-16T01:49:48.157Z,19.6
2017-03-16T01:50:58.461Z,19.64
2017-03-16T01:52:08.757Z,19.57
2017-03-16T01:53:19.047Z,19.66
2017-03-16T01:54:29.345Z,19.62
2017-03-16T01:55:39.578Z,19.56
2017-03-16T01:56:49.552Z,19.64
2017-03-16T01:57:59.849Z,19.64
2017-03-16T01:59:10.145Z,19.6
2017-03-16T02:00:20.436Z,19.66
2017-03-16T02:01:30.660Z,19.56
2017-03-16T02:02:40.963Z,19.6
2017-03-16T02:03:51.254Z,19.66
2017-03-16T02:05:01.238Z,19.62
2017-03-16T02:06:11.223Z,19.66
2017-03-16T02:07:21.868Z,19.66
2017-03-16T02:08:32.166Z,19.62
2017-03-16T02:09:41.831Z,19.62
2017-03-16T02:10:51.816Z,19.63
2017-03-16T02:12:02.110Z,19.57
2017-03-16T02:13:12.663Z,19.64
2017-03-16T02:14:22.957Z,19.6
2017-03-16T02:15:33.000Z,19.66
2017-03-16T02:16:43.335Z,19.63
2017-03-16T02:17:53.635Z,19.64
2017-03-16T02:19:04.172Z,19.63
2017-03-16T02:20:14.458Z,19.63
2017-03-16T02:21:24.754Z,19.7
2017-03-16T02:22:35.046Z,19.7
2017-03-16T02:23:45.337Z,19.59
2017-03-16T02:24:55.884Z,19.57
2017-03-16T02:26:06.189Z,19.6
2017-03-16T02:27:16.585Z,19.66
2017-03-16T02:28:26.871Z,19.63
2017-03-16T02:29:37.162Z,19.64
2017-03-16T02:30:47.392Z,19.64
2017-03-16T02:31:57.376Z,19.62
2017-03-16T02:33:07.658Z,19.57
2017-03-16T02:34:17.012Z,19.63
2017-03-16T02:35:26.996Z,19.66
2017-03-16T02:36:37.278Z,19.64
2017-03-16T02:37:47.564Z,19.63
2017-03-16T02:38:57.856Z,19.63
2017-03-16T02:40:07.843Z,19.57
2017-03-16T02:41:17.836Z,19.66
2017-03-16T02:42:28.074Z,19.7
2017-03-16T02:43:38.359Z,19.63
2017-03-16T02:44:48.647Z,19.67
2017-03-16T02:45:58.948Z,19.63
2017-03-16T02:47:09.232Z,19.67
2017-03-16T02:48:19.520Z,19.7
2017-03-16T02:49:29.813Z,19.6
2017-03-16T02:50:40.100Z,19.72
2017-03-16T02:51:50.385Z,19.64
2017-03-16T02:53:00.688Z,19.7
2017-03-16T02:54:11.285Z,19.64
2017-03-16T02:55:21.581Z,19.66
2017-03-16T02:56:31.633Z,19.7
2017-03-16T02:57:41.613Z,19.71
2017-03-16T02:58:51.386Z,19.67
2017-03-16T03:00:01.940Z,19.67
2017-03-16T03:01:12.329Z,19.74
2017-03-16T03:02:22.619Z,19.74
2017-03-16T03:03:32.899Z,19.71
2017-03-16T03:04:43.207Z,19.74
2017-03-16T03:05:53.754Z,19.71
2017-03-16T03:07:04.041Z,19.7
2017-03-16T03:08:14.326Z,19.71
2017-03-16T03:09:24.612Z,19.67
2017-03-16T03:10:34.910Z,19.7
2017-03-16T03:11:45.505Z,19.74
2017-03-16T03:12:55.501Z,19.67
2017-03-16T03:14:05.803Z,19.71
2017-03-16T03:15:15.784Z,19.78
2017-03-16T03:16:25.760Z,19.72
2017-03-16T03:17:36.371Z,19.66
2017-03-16T03:18:46.675Z,19.74
2017-03-16T03:19:56.969Z,19.66
2017-03-16T03:21:07.264Z,19.78
2017-03-16T03:22:17.561Z,19.72
2017-03-16T03:23:28.154Z,19.78
2017-03-16T03:24:38.134Z,19.63
2017-03-16T03:25:48.419Z,19.66
2017-03-16T03:26:58.416Z,19.7
2017-03-16T03:28:08.705Z,19.7
2017-03-16T03:29:19.251Z,19.7
2017-03-16T03:30:29.283Z,19.64
2017-03-16T03:31:39.281Z,19.72
2017-03-16T03:32:49.575Z,19.85
2017-03-16T03:33:59.862Z,19.72
2017-03-16T03:35:10.458Z,19.72
2017-03-16T03:36:20.745Z,19.71
2017-03-16T03:37:31.040Z,19.7
2017-03-16T03:38:41.024Z,19.7
2017-03-16T03:39:51.331Z,19.75
2017-03-16T03:41:01.911Z,19.72
2017-03-16T03:42:12.217Z,19.72
2017-03-16T03:43:22.204Z,19.71
2017-03-16T03:44:32.506Z,19.72
2017-03-16T03:45:42.803Z,19.7
2017-03-16T03:46:53.380Z,19.71
2017-03-16T03:48:03.673Z,19.78
2017-03-16T03:49:13.951Z,19.71
2017-03-16T03:50:24.258Z,19.67
2017-03-16T03:51:34.240Z,19.72
2017-03-16T03:52:44.835Z,19.7
2017-03-16T03:53:55.135Z,19.72
2017-03-16T03:55:05.430Z,19.75
2017-03-16T03:56:15.731Z,19.72
2017-03-16T03:57:26.019Z,19.67
2017-03-16T03:58:36.305Z,19.7
2017-03-16T03:59:46.607Z,19.72
2017-03-16T04:00:56.896Z,19.72
2017-03-16T04:02:07.184Z,19.7
2017-03-16T04:03:17.475Z,19.72
2017-03-16T04:04:28.067Z,19.79
2017-03-16T04:05:38.046Z,19.72
2017-03-16T04:06:48.028Z,19.72
2017-03-16T04:07:58.327Z,19.75
2017-03-16T04:09:08.003Z,19.71
2017-03-16T04:10:18.554Z,19.71
2017-03-16T04:11:28.538Z,19.7
2017-03-16T04:12:38.823Z,19.67
2017-03-16T04:13:48.813Z,19.75
2017-03-16T04:14:58.498Z,19.74
2017-03-16T04:16:09.087Z,19.7
2017-03-16T04:17:19.383Z,19.71
2017-03-16T04:18:29.680Z,19.71
2017-03-16T04:19:39.961Z,19.75
2017-03-16T04:20:50.263Z,19.64
2017-03-16T04:22:00.807Z,19.77
2017-03-16T04:23:11.098Z,19.67
2017-03-16T04:24:21.391Z,19.7
2017-03-16T04:25:31.679Z,19.66
2017-03-16T04:26:41.648Z,19.7
2017-03-16T04:27:52.237Z,19.71
2017-03-16T04:29:01.888Z,19.66
2017-03-16T04:30:11.558Z,19.63
2017-03-16T04:31:21.850Z,19.72
2017-03-16T04:32:31.828Z,19.67
2017-03-16T04:33:42.371Z,19.67
2017-03-16T04:34:52.669Z,19.62
2017-03-16T04:36:02.646Z,19.62
2017-03-16T04:37:12.627Z,19.62
2017-03-16T04:38:22.912Z,19.63
2017-03-16T04:39:33.193Z,19.63
2017-03-16T04:40:43.495Z,19.66
2017-03-16T04:41:53.782Z,19.64
2017-03-16T04:43:03.755Z,19.7
2017-03-16T04:44:13.725Z,19.64
2017-03-16T04:45:23.956Z,19.63
2017-03-16T04:46:34.262Z,19.66
2017-03-16T04:47:44.547Z,19.53
2017-03-16T04:48:54.845Z,19.66
2017-03-16T04:50:04.509Z,19.71
2017-03-16T04:51:15.043Z,19.7
2017-03-16T04:52:25.336Z,19.59
2017-03-16T04:53:35.321Z,19.62
2017-03-16T04:54:45.619Z,19.64
2017-03-16T04:55:55.597Z,19.64
2017-03-16T04:57:06.140Z,19.66
2017-03-16T04:58:16.121Z,19.66
2017-03-16T04:59:26.102Z,19.63
2017-03-16T05:00:36.408Z,19.67
2017-03-16T05:01:46.700Z,19.66
2017-03-16T05:02:57.226Z,19.66
2017-03-16T05:04:07.520Z,19.66
2017-03-16T05:05:17.510Z,19.6
2017-03-16T05:06:27.805Z,19.56
2017-03-16T05:07:38.116Z,19.66
2017-03-16T05:08:48.679Z,19.6
2017-03-16T05:09:58.812Z,19.63
2017-03-16T05:11:09.107Z,19.64
2017-03-16T05:12:19.402Z,19.62
2017-03-16T05:13:29.082Z,19.6
2017-03-16T05:14:39.635Z,19.63
2017-03-16T05:15:49.939Z,19.55
2017-03-16T05:16:59.962Z,19.56
2017-03-16T05:18:10.259Z,19.59
2017-03-16T05:19:20.567Z,19.57
2017-03-16T05:20:30.806Z,19.52
2017-03-16T05:21:41.097Z,19.56
2017-03-16T05:22:51.089Z,19.6
2017-03-16T05:24:01.399Z,19.63
2017-03-16T05:25:11.687Z,19.64
2017-03-16T05:26:22.255Z,19.62
2017-03-16T05:27:32.551Z,19.64
2017-03-16T05:28:42.856Z,19.66
2017-03-16T05:29:53.165Z,19.64
2017-03-16T05:31:03.152Z,19.64
2017-03-16T05:32:13.746Z,19.7
2017-03-16T05:33:24.061Z,19.71
2017-03-16T05:34:34.375Z,19.74
2017-03-16T05:35:44.365Z,19.72
2017-03-16T05:36:54.666Z,19.72
2017-03-16T05:38:04.956Z,19.7
2017-03-16T05:39:15.244Z,19.78
2017-03-16T05:40:25.546Z,19.66
2017-03-16T05:41:35.532Z,19.72
2017-03-16T05:42:45.533Z,19.75
2017-03-16T05:43:56.125Z,19.74
2017-03-16T05:45:06.112Z,19.72
2017-03-16T05:46:16.429Z,19.66
2017-03-16T05:47:26.415Z,19.82
2017-03-16T05:48:36.407Z,19.79
2017-03-16T05:49:46.989Z,19.87
2017-03-16T05:50:57.293Z,19.82
2017-03-16T05:52:07.583Z,19.81
2017-03-16T05:53:17.888Z,19.81
2017-03-16T05:54:28.206Z,19.78
2017-03-16T05:55:38.745Z,19.79
2017-03-16T05:56:49.046Z,19.92
2017-03-16T05:57:59.028Z,19.85
2017-03-16T05:59:09.015Z,19.77
2017-03-16T06:00:19.338Z,19.78
2017-03-16T06:01:29.888Z,19.84
2017-03-16T06:02:39.863Z,19.89
2017-03-16T06:03:50.176Z,19.9
2017-03-16T06:05:00.476Z,19.82
2017-03-16T06:06:10.774Z,19.94
2017-03-16T06:07:21.321Z,19.82
2017-03-16T06:08:31.630Z,19.82
2017-03-16T06:09:41.955Z,19.9
2017-03-16T06:10:51.942Z,19.9
2017-03-16T06:12:02.246Z,19.93
2017-03-16T06:13:12.806Z,19.93
2017-03-16T06:14:23.107Z,19.94
2017-03-16T06:15:33.088Z,20.1
2017-03-16T06:16:43.392Z,20.11
2017-03-16T06:17:53.713Z,20.11
2017-03-16T06:19:04.314Z,20.18
2017-03-16T06:20:14.317Z,20.21
2017-03-16T06:21:24.614Z,20.17
2017-03-16T06:22:34.902Z,20.24
2017-03-16T06:23:45.229Z,20.24
2017-03-16T06:24:55.222Z,20.33
2017-03-16T06:26:05.246Z,20.33
2017-03-16T06:27:15.566Z,20.27
2017-03-16T06:28:25.862Z,20.48
2017-03-16T06:29:36.172Z,20.55
2017-03-16T06:30:46.470Z,20.48
2017-03-16T06:31:56.764Z,20.56
2017-03-16T06:33:06.764Z,20.64
2017-03-16T06:34:17.066Z,20.63
2017-03-16T06:35:27.064Z,20.67
2017-03-16T06:36:37.683Z,20.66
2017-03-16T06:37:47.674Z,20.64
2017-03-16T06:38:57.667Z,20.68
2017-03-16T06:40:07.997Z,20.66
2017-03-16T06:41:18.315Z,20.64
2017-03-16T06:42:28.905Z,20.6
2017-03-16T06:43:38.913Z,20.64
2017-03-16T06:44:49.216Z,20.66
2017-03-16T06:45:59.520Z,20.68
2017-03-16T06:47:09.837Z,20.59
2017-03-16T06:48:20.447Z,20.64
2017-03-16T06:49:30.754Z,20.63
2017-03-16T06:50:40.751Z,20.63
2017-03-16T06:51:50.742Z,20.63
2017-03-16T06:53:01.033Z,20.58
2017-03-16T06:54:11.593Z,20.64
2017-03-16T06:55:21.914Z,20.68
2017-03-16T06:56:32.223Z,20.63
2017-03-16T06:57:42.552Z,20.7
2017-03-16T06:58:52.928Z,20.6
2017-03-16T07:00:03.485Z,20.7
2017-03-16T07:01:13.776Z,20.68
2017-03-16T07:02:24.086Z,20.68
2017-03-16T07:03:34.077Z,20.78
2017-03-16T07:04:44.438Z,20.78
2017-03-16T07:05:55.053Z,20.77
2017-03-16T07:07:05.048Z,20.85
2017-03-16T07:08:15.363Z,20.89
2017-03-16T07:09:25.720Z,20.86
2017-03-16T07:10:36.058Z,20.89
2017-03-16T07:11:46.370Z,20.92
2017-03-16T07:12:56.694Z,20.88
2017-03-16T07:14:07.318Z,20.88
2017-03-16T07:15:17.631Z,20.98
2017-03-16T07:16:27.948Z,20.88
2017-03-16T07:17:38.591Z,20.92
2017-03-16T07:18:48.982Z,20.98
2017-03-16T07:19:59.027Z,20.85
2017-03-16T07:21:09.493Z,20.88
2017-03-16T07:22:19.814Z,20.9
2017-03-16T07:23:30.386Z,20.95
2017-03-16T07:24:40.097Z,20.89
2017-03-16T07:25:50.108Z,20.95
2017-03-16T07:27:00.418Z,20.88
2017-03-16T07:28:10.422Z,21.04
2017-03-16T07:29:20.674Z,20.92
2017-03-16T07:30:30.995Z,21.01
2017-03-16T07:31:40.997Z,21.01
2017-03-16T07:32:51.370Z,21.01
2017-03-16T07:34:01.686Z,20.98
2017-03-16T07:35:12.005Z,21.01
2017-03-16T07:36:22.450Z,21.03
2017-03-16T07:37:32.819Z,21.07
2017-03-16T07:38:43.168Z,21
2017-03-16T07:39:53.183Z,21.07
2017-03-16T07:41:04.141Z,21.05
2017-03-16T07:42:14.138Z,21.04
2017-03-16T07:43:24.493Z,21.04
2017-03-16T07:44:34.499Z,21.04
2017-03-16T07:45:45.078Z,21.01
2017-03-16T07:46:55.652Z,21.03
2017-03-16T07:48:05.977Z,21.07
2017-03-16T07:49:16.399Z,21.15
2017-03-16T07:50:26.435Z,21.14
2017-03-16T07:51:36.788Z,21.14
2017-03-16T07:52:47.115Z,21.1
2017-03-16T07:53:57.527Z,21.05
2017-03-16T07:55:07.597Z,21.05
2017-03-16T07:56:17.951Z,21.01
2017-03-16T07:57:27.983Z,21.11
2017-03-16T07:58:38.598Z,21.01
2017-03-16T07:59:48.948Z,21.04
2017-03-16T08:00:59.264Z,21
2017-03-16T08:02:09.597Z,21.08
2017-03-16T08:03:19.910Z,21.13
2017-03-16T08:04:30.559Z,21.07
2017-03-16T08:05:40.916Z,21.11
2017-03-16T08:06:51.273Z,21.13
2017-03-16T08:08:01.624Z,21.15
2017-03-16T08:09:11.952Z,21.14
2017-03-16T08:10:22.252Z,21.2
2017-03-16T08:11:32.774Z,21.25
2017-03-16T08:12:42.829Z,21.22
2017-03-16T08:13:53.191Z,21.3
2017-03-16T08:15:03.217Z,21.23
2017-03-16T08:16:13.203Z,21.25
2017-03-16T08:17:23.559Z,21.23
2017-03-16T08:18:33.577Z,21.35
2017-03-16T08:19:43.697Z,21.28
2017-03-16T08:20:54.568Z,21.25
2017-03-16T08:22:05.133Z,21.28
2017-03-16T08:23:15.142Z,21.25
2017-03-16T08:24:25.444Z,21.28
2017-03-16T08:25:35.772Z,21.35
2017-03-16T08:26:46.142Z,21.3
2017-03-16T08:27:56.469Z,21.26
2017-03-16T08:29:06.801Z,21.3
2017-03-16T08:30:17.096Z,21.3
2017-03-16T08:31:27.136Z,21.3
2017-03-16T08:32:37.465Z,21.28
2017-03-16T08:33:47.711Z,21.3
2017-03-16T08:34:58.012Z,21.26
2017-03-16T08:36:08.594Z,21.29
2017-03-16T08:37:18.605Z,21.32
2017-03-16T08:38:28.922Z,21.28
2017-03-16T08:39:39.545Z,21.35
2017-03-16T08:40:49.837Z,21.26
2017-03-16T08:42:00.141Z,21.32
2017-03-16T08:43:10.528Z,21.33
2017-03-16T08:44:20.520Z,21.35
2017-03-16T08:45:31.119Z,21.32
2017-03-16T08:46:41.443Z,21.35
2017-03-16T08:47:51.446Z,21.33
2017-03-16T08:49:01.750Z,21.32
2017-03-16T08:50:12.064Z,21.33
2017-03-16T08:51:22.679Z,21.35
2017-03-16T08:52:32.671Z,21.33
2017-03-16T08:53:42.684Z,21.29
2017-03-16T08:54:53.009Z,21.37
2017-03-16T08:56:03.315Z,21.37
2017-03-16T08:57:13.627Z,21.29
2017-03-16T08:58:23.939Z,21.41
2017-03-16T08:59:33.309Z,21.4
2017-03-16T09:00:42.998Z,21.37
2017-03-16T09:01:53.313Z,21.45
2017-03-16T09:03:03.930Z,21.54
2017-03-16T09:04:14.253Z,21.54
2017-03-16T09:05:24.569Z,21.58
2017-03-16T09:06:34.875Z,21.6
2017-03-16T09:07:45.199Z,21.56
2017-03-16T09:08:55.814Z,21.51
2017-03-16T09:10:05.934Z,21.54
2017-03-16T09:11:15.939Z,21.53
2017-03-16T09:12:26.298Z,21.54
2017-03-16T09:13:36.294Z,21.51
2017-03-16T09:14:46.270Z,21.53
2017-03-16T09:15:56.579Z,21.58
2017-03-16T09:17:06.900Z,21.47
2017-03-16T09:18:17.235Z,21.62
2017-03-16T09:19:27.571Z,21.54
2017-03-16T09:20:38.179Z,21.53
2017-03-16T09:21:48.497Z,21.54
2017-03-16T09:22:58.485Z,21.43
2017-03-16T09:24:08.800Z,21.45
2017-03-16T09:25:19.105Z,21.5
2017-03-16T09:26:29.148Z,21.45
2017-03-16T09:27:39.286Z,21.44
2017-03-16T09:28:49.289Z,21.54
2017-03-16T09:29:59.286Z,21.58
2017-03-16T09:31:09.305Z,21.62
2017-03-16T09:32:19.608Z,21.6
2017-03-16T09:33:29.638Z,21.53
2017-03-16T09:34:39.975Z,21.59
2017-03-16T09:35:50.534Z,21.56
2017-03-16T09:37:00.843Z,21.65
2017-03-16T09:38:11.465Z,21.58
2017-03-16T09:39:21.805Z,21.45
2017-03-16T09:40:32.141Z,21.47
2017-03-16T09:41:41.532Z,21.4
2017-03-16T09:42:51.845Z,21.47
2017-03-16T09:44:02.474Z,21.48
2017-03-16T09:45:12.793Z,21.47
2017-03-16T09:46:23.153Z,21.45
2017-03-16T09:47:33.506Z,21.48
2017-03-16T09:48:43.820Z,21.6
2017-03-16T09:49:54.426Z,21.51
2017-03-16T09:51:04.790Z,21.59
2017-03-16T09:52:15.145Z,21.5
2017-03-16T09:53:25.142Z,21.56
2017-03-16T09:54:35.463Z,21.54
2017-03-16T09:55:45.770Z,21.48
2017-03-16T09:56:56.137Z,21.5
2017-03-16T09:58:06.480Z,21.48
2017-03-16T09:59:16.537Z,21.47
2017-03-16T10:00:27.047Z,21.48
2017-03-16T10:01:37.694Z,21.44
2017-03-16T10:02:48.007Z,21.38
2017-03-16T10:03:58.034Z,21.43
2017-03-16T10:05:08.359Z,21.38
2017-03-16T10:06:18.691Z,21.37
2017-03-16T10:07:29.345Z,21.43
2017-03-16T10:08:39.372Z,21.48
2017-03-16T10:09:49.695Z,21.44
2017-03-16T10:11:00.005Z,21.44
2017-03-16T10:12:09.697Z,21.4
2017-03-16T10:13:20.267Z,21.43
2017-03-16T10:14:30.560Z,21.44
2017-03-16T10:15:40.880Z,21.43
2017-03-16T10:16:50.877Z,21.45
2017-03-16T10:18:01.189Z,21.4
2017-03-16T10:19:11.773Z,21.44
2017-03-16T10:20:21.779Z,21.41
2017-03-16T10:21:32.189Z,21.38
2017-03-16T10:22:42.598Z,21.44
2017-03-16T10:23:52.992Z,21.38
2017-03-16T10:25:03.579Z,21.44
2017-03-16T10:26:13.776Z,21.44
2017-03-16T10:27:24.110Z,21.44
2017-03-16T10:28:34.105Z,21.44
2017-03-16T10:29:44.410Z,21.53
2017-03-16T10:30:55.001Z,21.4
2017-03-16T10:32:05.058Z,21.51
2017-03-16T10:33:15.053Z,21.48
2017-03-16T10:34:25.365Z,21.48
2017-03-16T10:35:35.668Z,21.54
2017-03-16T10:36:46.244Z,21.5
2017-03-16T10:37:56.252Z,21.51
2017-03-16T10:39:06.582Z,21.51
2017-03-16T10:40:16.579Z,21.45
2017-03-16T10:41:26.596Z,21.56
2017-03-16T10:42:37.218Z,21.5
2017-03-16T10:43:47.537Z,21.45
2017-03-16T10:44:57.871Z,21.48
2017-03-16T10:46:07.879Z,21.44
2017-03-16T10:47:18.189Z,21.45
2017-03-16T10:48:28.800Z,21.54
2017-03-16T10:49:39.123Z,21.56
2017-03-16T10:50:49.443Z,21.54
2017-03-16T10:51:59.749Z,21.62
2017-03-16T10:53:09.753Z,21.66
2017-03-16T10:54:20.050Z,21.56
2017-03-16T10:55:30.047Z,21.65
2017-03-16T10:56:40.377Z,21.62
2017-03-16T10:57:50.698Z,21.68
2017-03-16T10:59:00.678Z,21.66
2017-03-16T11:00:10.985Z,21.72
2017-03-16T11:01:21.288Z,21.77
2017-03-16T11:02:31.281Z,21.75
2017-03-16T11:03:41.583Z,21.75
2017-03-16T11:04:51.589Z,21.83
2017-03-16T11:06:02.201Z,21.85
2017-03-16T11:07:12.185Z,21.92
2017-03-16T11:08:22.166Z,21.92
2017-03-16T11:09:31.843Z,22
2017-03-16T11:10:42.158Z,21.88
2017-03-16T11:11:52.705Z,21.75
2017-03-16T11:13:02.431Z,21.58
2017-03-16T11:14:12.738Z,21.77
2017-03-16T11:15:22.729Z,21.85
2017-03-16T11:16:32.745Z,21.94
2017-03-16T11:17:43.292Z,21.92
2017-03-16T11:18:53.276Z,21.97
2017-03-16T11:20:03.609Z,22.01
2017-03-16T11:21:13.977Z,22.04
2017-03-16T11:22:23.968Z,22.01
2017-03-16T11:23:34.572Z,21.97
2017-03-16T11:24:44.576Z,22.07
2017-03-16T11:25:54.581Z,22.04
2017-03-16T11:27:04.581Z,21.97
2017-03-16T11:28:14.911Z,22
2017-03-16T11:29:25.472Z,21.99
2017-03-16T11:30:35.776Z,21.94
2017-03-16T11:31:46.085Z,21.97
2017-03-16T11:32:56.406Z,21.99
2017-03-16T11:34:06.712Z,22.01
2017-03-16T11:35:16.996Z,21.99
2017-03-16T11:36:27.304Z,22.04
2017-03-16T11:37:37.641Z,22.07
2017-03-16T11:38:47.983Z,22.1
2017-03-16T11:39:58.304Z,22.23
2017-03-16T11:41:08.925Z,22.18
2017-03-16T11:42:18.924Z,22.23
2017-03-16T11:43:28.925Z,22.36
2017-03-16T11:44:38.928Z,22.26
2017-03-16T11:45:49.229Z,22.21
2017-03-16T11:46:59.826Z,22.22
2017-03-16T11:48:09.825Z,22.22
2017-03-16T11:49:20.143Z,22.26
2017-03-16T11:50:30.473Z,22.18
2017-03-16T11:51:40.486Z,22.25
2017-03-16T11:52:51.106Z,22.15
2017-03-16T11:54:01.109Z,22.16
2017-03-16T11:55:11.411Z,22.19
2017-03-16T11:56:21.401Z,22.19
2017-03-16T11:57:31.714Z,22.15
2017-03-16T11:58:42.309Z,22.19
2017-03-16T11:59:52.609Z,22.16
2017-03-16T12:01:02.905Z,22.15
2017-03-16T12:02:12.892Z,22.16
2017-03-16T12:03:23.201Z,22.28
2017-03-16T12:04:33.491Z,22.22
2017-03-16T12:05:43.494Z,22.18
2017-03-16T12:06:53.811Z,22.3
2017-03-16T12:08:04.124Z,22.28
2017-03-16T12:09:14.428Z,22.28
2017-03-16T12:10:25.074Z,22.19
2017-03-16T12:11:35.388Z,22.16
2017-03-16T12:12:45.740Z,22.26
2017-03-16T12:13:56.043Z,22.31
2017-03-16T12:15:06.453Z,22.28
2017-03-16T12:16:17.066Z,22.33
2017-03-16T12:17:27.052Z,22.34
2017-03-16T12:18:37.387Z,22.37
2017-03-16T12:19:47.709Z,22.28
2017-03-16T12:20:57.712Z,22.22
2017-03-16T12:22:07.689Z,22.26
2017-03-16T12:23:17.996Z,22.23
2017-03-16T12:24:27.984Z,22.19
2017-03-16T12:25:37.996Z,22.15
2017-03-16T12:26:48.321Z,22.21
2017-03-16T12:27:58.623Z,22.23
2017-03-16T12:29:08.921Z,22.18
2017-03-16T12:30:19.230Z,22.16
2017-03-16T12:31:29.545Z,22.14
2017-03-16T12:32:39.865Z,22.07
2017-03-16T12:33:50.487Z,22.07
2017-03-16T12:35:00.836Z,21.97
2017-03-16T12:36:11.190Z,22
2017-03-16T12:37:21.509Z,22.03
2017-03-16T12:38:31.506Z,21.97
2017-03-16T12:39:41.835Z,22.07
2017-03-16T12:40:52.396Z,22.01
2017-03-16T12:42:02.405Z,22.12
2017-03-16T12:43:12.386Z,22.04
2017-03-16T12:44:22.380Z,21.99
2017-03-16T12:45:32.726Z,22.06
2017-03-16T12:46:43.353Z,22.06
2017-03-16T12:47:53.717Z,22.08
2017-03-16T12:49:04.092Z,22.1
2017-03-16T12:50:14.490Z,22.03
2017-03-16T12:51:24.217Z,22.1
2017-03-16T12:52:34.214Z,22.04
2017-03-16T12:53:44.534Z,22.03
2017-03-16T12:54:54.536Z,22.08
2017-03-16T12:56:04.856Z,22.01
2017-03-16T12:57:15.155Z,22
2017-03-16T12:58:25.471Z,22.04
2017-03-16T12:59:35.473Z,22.08
2017-03-16T13:00:45.792Z,22.14
2017-03-16T13:01:56.127Z,22.06
2017-03-16T13:03:06.735Z,22.12
2017-03-16T13:04:17.048Z,22.22
2017-03-16T13:05:27.353Z,22.03
2017-03-16T13:06:37.674Z,22.06
2017-03-16T13:07:47.692Z,22.04
2017-03-16T13:08:58.314Z,21.99
2017-03-16T13:10:08.658Z,22.1
2017-03-16T13:11:18.991Z,21.97
2017-03-16T13:12:29.298Z,22.04
2017-03-16T13:13:39.835Z,21.94
2017-03-16T13:14:50.462Z,21.92
2017-03-16T13:16:00.767Z,21.94
2017-03-16T13:17:11.071Z,21.94
2017-03-16T13:18:21.384Z,22.04
2017-03-16T13:19:31.695Z,22.03
2017-03-16T13:20:42.294Z,22
2017-03-16T13:21:52.316Z,22.1
2017-03-16T13:23:02.304Z,22.01
2017-03-16T13:24:12.610Z,22.01
2017-03-16T13:25:22.619Z,22.08
2017-03-16T13:26:33.251Z,22.08
2017-03-16T13:27:43.580Z,22.12
2017-03-16T13:28:53.890Z,22.19
2017-03-16T13:30:04.389Z,22.12
2017-03-16T13:31:14.755Z,22.15
2017-03-16T13:32:25.372Z,22.08
2017-03-16T13:33:35.685Z,22.06
2017-03-16T13:34:46.005Z,22.03
2017-03-16T13:35:56.323Z,22.1
2017-03-16T13:37:06.629Z,22.19
2017-03-16T13:38:17.237Z,22.08
2017-03-16T13:39:27.552Z,22.15
2017-03-16T13:40:37.883Z,22.16
2017-03-16T13:41:47.931Z,22.12
2017-03-16T13:42:57.926Z,22.14
2017-03-16T13:44:08.540Z,22.08
2017-03-16T13:45:18.543Z,22.07
2017-03-16T13:46:28.840Z,22.15
2017-03-16T13:47:39.162Z,22.19
2017-03-16T13:48:49.461Z,22.12
2017-03-16T13:50:00.082Z,22.14
2017-03-16T13:51:10.386Z,22.14
2017-03-16T13:52:20.709Z,22.15
2017-03-16T13:53:31.022Z,22.19
2017-03-16T13:54:41.335Z,22.14
2017-03-16T13:55:52.150Z,22.08
2017-03-16T13:57:02.159Z,22.01
2017-03-16T13:58:12.463Z,22.04
2017-03-16T13:59:22.764Z,22.07
2017-03-16T14:00:33.081Z,22.14
2017-03-16T14:01:43.686Z,22.19
2017-03-16T14:02:53.698Z,22.22
2017-03-16T14:04:04.037Z,22.16
2017-03-16T14:05:14.370Z,22.16
2017-03-16T14:06:24.378Z,22.15
2017-03-16T14:07:34.993Z,22.16
2017-03-16T14:08:45.310Z,22.12
2017-03-16T14:09:55.311Z,22.15
2017-03-16T14:11:05.311Z,22.1
2017-03-16T14:12:15.663Z,22.22
2017-03-16T14:13:25.983Z,22.16
2017-03-16T14:14:36.294Z,22.18
2017-03-16T14:15:46.624Z,22.18
2017-03-16T14:16:56.937Z,22.15
2017-03-16T14:18:06.963Z,22.14
2017-03-16T14:19:17.261Z,22.15
2017-03-16T14:20:27.248Z,22.14
2017-03-16T14:21:37.260Z,22.16
2017-03-16T14:22:47.260Z,22.16
2017-03-16T14:23:57.241Z,22.15
2017-03-16T14:25:07.526Z,22.14
2017-03-16T14:26:17.862Z,22.12
2017-03-16T14:27:28.181Z,22.16
2017-03-16T14:28:38.485Z,22.18
2017-03-16T14:29:48.789Z,22.21
2017-03-16T14:30:59.403Z,22.08
2017-03-16T14:32:09.408Z,22.07
2017-03-16T14:33:19.735Z,22.04
2017-03-16T14:34:29.756Z,22.03
2017-03-16T14:35:40.073Z,22.04
2017-03-16T14:36:50.392Z,21.92
2017-03-16T14:38:00.705Z,21.97
2017-03-16T14:39:10.400Z,21.94
2017-03-16T14:40:20.416Z,21.91
2017-03-16T14:41:30.434Z,21.89
2017-03-16T14:42:40.792Z,21.92
2017-03-16T14:43:51.099Z,21.84
2017-03-16T14:45:01.376Z,21.89
2017-03-16T14:46:11.703Z,22
2017-03-16T14:47:22.035Z,22
2017-03-16T14:48:32.705Z,22.04
2017-03-16T14:49:43.259Z,22.07
2017-03-16T14:50:53.589Z,21.97
2017-03-16T14:52:03.581Z,21.97
2017-03-16T14:53:13.896Z,22.04
2017-03-16T14:54:24.518Z,22.01
2017-03-16T14:55:34.824Z,22.06
2017-03-16T14:56:45.129Z,22.06
2017-03-16T14:57:55.420Z,22
2017-03-16T14:59:05.726Z,22.04
2017-03-16T15:00:16.391Z,22.06
2017-03-16T15:01:26.389Z,22.03
2017-03-16T15:02:36.690Z,22.06
2017-03-16T15:03:46.380Z,21.97
2017-03-16T15:04:56.361Z,22.04
2017-03-16T15:06:06.956Z,22.01
2017-03-16T15:07:17.272Z,21.99
2017-03-16T15:08:27.264Z,22
2017-03-16T15:09:37.573Z,21.94